VABP/BHO METAR and TAF weather

Enter ICAO airport designator
Station Type Date Time Source
VABP METAR 2019/02/23 00:00 UTC NOAA

VABP 230000Z 02006KT 4000 HZ FEW025 18/15 Q1016 NOSIG


Station Type Date Time Source
VABP Decoded METAR 2019/02/23 00:00 UTC NOAA

Bhopal / Bairagarh, India (VABP) 23-17N 077-21E 523M
Feb 22, 2019 - 07:00 PM EST / 2019.02.23 0000 UTC
Wind: from the NNE (020 degrees) at 7 MPH (6 KT):0
Visibility: 2 mile(s):0
Sky conditions: mostly clear
Weather: haze
Temperature: 64 F (18 C)
Dew Point: 59 F (15 C)
Relative Humidity: 82%
Pressure (altimeter): 30.00 in. Hg (1016 hPa)
ob: VABP 230000Z 02006KT 4000 HZ FEW025 18/15 Q1016 NOSIG
cycle: 0

Station Type Date Time Source
VABP TAF 2018/02/11 00:00 UTC NOAA

TAF VABP 102300Z 1100/1109 12003KT 2000 HZ FEW100
BECMG 1104/1106 14008KT 5000 RA HZ SCT020 SCT025 BKN100


Example: see airport list